首页
METAR-TAF:

METAR-TAF

机场 :

南安普敦機場

南安普敦, 英格兰

纬度: 50-54N, 经度: 001-24W, 海拔: 9米

当前天气观测

该预报发布于34分钟前的06:50 UTC
风速1节,风向多变
温度 0°C
湿度 93%
气压 1010 hPa
能见度10公里或以上

METAR: EGHI 170650Z VRB01KT 9999 NSC 00/M01 Q1010

时间: 07:24 (07:24 UTC)

预报

该预报发布于27分钟前的06:57 UTC
预报有效从17日的 07点(UTC)到 17日的 12点(UTC)
风速3节,风向多变
能见度10公里或以上
少量云层高于4000英尺
短暂存在
从 17日的 07点(UTC)到 17日的 09点(UTC)
能見度: 4000
轻雾

TAF: EGHI 170657Z 1707/1712 VRB03KT 9999 FEW040 TEMPO 1707/1709 4000 BR

超过4000个机场的气象观测和天气预报(METAR&TAF报告)。

可查询的气象台以黄色和红色小点在地图上表示。

将鼠标移到小点上方,可查看气象台名称。

然后点击查看天气观测和预报。

如需切换地图:点击带黑十字的绿色按钮放大地图;点击带横线的绿色按钮缩小地图;或者点击绿色箭头查看邻近地区的地图。


METAR-TAF: